sensor_id;sensor_type;location;lat;lon;timestamp;temperature;humidity
22081;DHT22;11207;59.512;18.050;2022-12-18T00:01:45;-0.90;99.90
22081;DHT22;11207;59.512;18.050;2022-12-18T00:04:20;-0.90;99.90
22081;DHT22;11207;59.512;18.050;2022-12-18T00:06:46;-0.90;99.90
22081;DHT22;11207;59.512;18.050;2022-12-18T00:09:12;-0.90;99.90
22081;DHT22;11207;59.512;18.050;2022-12-18T00:11:38;-0.80;99.90
22081;DHT22;11207;59.512;18.050;2022-12-18T00:14:03;-0.80;99.90
22081;DHT22;11207;59.512;18.050;2022-12-18T00:16:29;-0.80;99.90
22081;DHT22;11207;59.512;18.050;2022-12-18T00:18:58;-0.80;99.90
22081;DHT22;11207;59.512;18.050;2022-12-18T00:21:24;-0.70;99.90
22081;DHT22;11207;59.512;18.050;2022-12-18T00:23:51;-0.70;99.90
22081;DHT22;11207;59.512;18.050;2022-12-18T00:26:19;-0.70;99.90
22081;DHT22;11207;59.512;18.050;2022-12-18T00:28:46;-0.60;99.90
22081;DHT22;11207;59.512;18.050;2022-12-18T00:31:14;-0.60;99.90
22081;DHT22;11207;59.512;18.050;2022-12-18T00:33:40;-0.60;99.90
22081;DHT22;11207;59.512;18.050;2022-12-18T00:36:14;-0.60;99.90
22081;DHT22;11207;59.512;18.050;2022-12-18T00:38:40;-0.50;99.90
22081;DHT22;11207;59.512;18.050;2022-12-18T00:41:08;-0.50;99.90
22081;DHT22;11207;59.512;18.050;2022-12-18T00:43:34;-0.50;99.90
22081;DHT22;11207;59.512;18.050;2022-12-18T00:46:00;-0.50;99.90
22081;DHT22;11207;59.512;18.050;2022-12-18T00:48:25;-0.50;99.90
22081;DHT22;11207;59.512;18.050;2022-12-18T00:50:51;-0.50;99.90
22081;DHT22;11207;59.512;18.050;2022-12-18T00:53:17;-0.50;99.90
22081;DHT22;11207;59.512;18.050;2022-12-18T00:55:44;-0.50;99.90
22081;DHT22;11207;59.512;18.050;2022-12-18T00:58:11;-0.50;99.90
22081;DHT22;11207;59.512;18.050;2022-12-18T01:00:38;-0.50;99.90
22081;DHT22;11207;59.512;18.050;2022-12-18T01:03:04;-0.50;99.90
22081;DHT22;11207;59.512;18.050;2022-12-18T01:05:30;-0.40;99.90
22081;DHT22;11207;59.512;18.050;2022-12-18T01:07:56;-0.40;99.90
22081;DHT22;11207;59.512;18.050;2022-12-18T01:10:23;-0.40;99.90
22081;DHT22;11207;59.512;18.050;2022-12-18T01:12:49;-0.40;99.90
22081;DHT22;11207;59.512;18.050;2022-12-18T01:15:15;-0.40;99.90
22081;DHT22;11207;59.512;18.050;2022-12-18T01:17:41;-0.40;99.90
22081;DHT22;11207;59.512;18.050;2022-12-18T01:20:07;-0.40;99.90
22081;DHT22;11207;59.512;18.050;2022-12-18T01:22:34;-0.40;99.90
22081;DHT22;11207;59.512;18.050;2022-12-18T01:25:00;-0.40;99.90
22081;DHT22;11207;59.512;18.050;2022-12-18T01:27:26;-0.40;99.90
22081;DHT22;11207;59.512;18.050;2022-12-18T01:29:52;-0.40;99.90
22081;DHT22;11207;59.512;18.050;2022-12-18T01:32:17;-0.40;99.90
22081;DHT22;11207;59.512;18.050;2022-12-18T01:34:43;-0.40;99.90
22081;DHT22;11207;59.512;18.050;2022-12-18T01:37:09;-0.30;99.90
22081;DHT22;11207;59.512;18.050;2022-12-18T01:39:34;-0.30;99.90
22081;DHT22;11207;59.512;18.050;2022-12-18T01:42:02;-0.30;99.90
22081;DHT22;11207;59.512;18.050;2022-12-18T01:50:19;-0.30;99.90
22081;DHT22;11207;59.512;18.050;2022-12-18T01:52:58;-0.30;99.90
22081;DHT22;11207;59.512;18.050;2022-12-18T01:55:28;-0.30;99.90
22081;DHT22;11207;59.512;18.050;2022-12-18T01:57:57;-0.30;99.90
22081;DHT22;11207;59.512;18.050;2022-12-18T02:00:25;-0.30;99.90
22081;DHT22;11207;59.512;18.050;2022-12-18T02:02:51;-0.30;99.90
22081;DHT22;11207;59.512;18.050;2022-12-18T02:05:23;-0.30;99.90
22081;DHT22;11207;59.512;18.050;2022-12-18T02:08:09;-0.30;99.90
22081;DHT22;11207;59.512;18.050;2022-12-18T02:10:51;-0.20;99.90
22081;DHT22;11207;59.512;18.050;2022-12-18T02:16:10;-0.20;99.90
22081;DHT22;11207;59.512;18.050;2022-12-18T02:18:44;-0.20;99.90
22081;DHT22;11207;59.512;18.050;2022-12-18T02:21:36;-0.20;99.90
22081;DHT22;11207;59.512;18.050;2022-12-18T02:26:50;-0.10;99.90
22081;DHT22;11207;59.512;18.050;2022-12-18T02:29:21;-0.10;99.90
22081;DHT22;11207;59.512;18.050;2022-12-18T02:31:56;-0.10;99.90
22081;DHT22;11207;59.512;18.050;2022-12-18T02:34:28;-0.10;99.90
22081;DHT22;11207;59.512;18.050;2022-12-18T02:36:55;-0.10;99.90
22081;DHT22;11207;59.512;18.050;2022-12-18T02:39:23;-0.10;99.90
22081;DHT22;11207;59.512;18.050;2022-12-18T02:41:50;-0.10;99.90
22081;DHT22;11207;59.512;18.050;2022-12-18T02:44:16;-0.10;99.90
22081;DHT22;11207;59.512;18.050;2022-12-18T02:46:48;-0.10;99.90
22081;DHT22;11207;59.512;18.050;2022-12-18T02:49:38;-0.10;99.90
22081;DHT22;11207;59.512;18.050;2022-12-18T02:54:57;0.00;99.90
22081;DHT22;11207;59.512;18.050;2022-12-18T02:57:33;0.00;99.90
22081;DHT22;11207;59.512;18.050;2022-12-18T03:00:10;-0.10;99.90
22081;DHT22;11207;59.512;18.050;2022-12-18T03:02:53;-0.10;99.90
22081;DHT22;11207;59.512;18.050;2022-12-18T03:05:33;-0.10;99.90
22081;DHT22;11207;59.512;18.050;2022-12-18T03:08:06;-0.10;99.90
22081;DHT22;11207;59.512;18.050;2022-12-18T03:10:38;-0.10;99.90
22081;DHT22;11207;59.512;18.050;2022-12-18T03:13:16;0.10;99.90
22081;DHT22;11207;59.512;18.050;2022-12-18T03:15:49;-0.10;99.90
22081;DHT22;11207;59.512;18.050;2022-12-18T03:18:23;-0.10;99.90
22081;DHT22;11207;59.512;18.050;2022-12-18T03:20:51;-0.10;99.90
22081;DHT22;11207;59.512;18.050;2022-12-18T03:23:22;-0.10;99.90
22081;DHT22;11207;59.512;18.050;2022-12-18T03:25:54;-0.10;99.90
22081;DHT22;11207;59.512;18.050;2022-12-18T03:28:22;-0.10;99.90
22081;DHT22;11207;59.512;18.050;2022-12-18T03:30:52;-0.20;99.90
22081;DHT22;11207;59.512;18.050;2022-12-18T03:33:27;-0.20;99.90
22081;DHT22;11207;59.512;18.050;2022-12-18T03:35:55;-0.20;99.90
22081;DHT22;11207;59.512;18.050;2022-12-18T03:38:21;-0.20;99.90
22081;DHT22;11207;59.512;18.050;2022-12-18T03:43:49;-0.20;99.90
22081;DHT22;11207;59.512;18.050;2022-12-18T03:46:28;-0.20;99.90
22081;DHT22;11207;59.512;18.050;2022-12-18T03:49:23;-0.20;99.90
22081;DHT22;11207;59.512;18.050;2022-12-18T03:52:01;-0.20;99.90
22081;DHT22;11207;59.512;18.050;2022-12-18T03:54:29;-0.20;99.90
22081;DHT22;11207;59.512;18.050;2022-12-18T03:57:11;-0.20;99.90
22081;DHT22;11207;59.512;18.050;2022-12-18T03:59:39;-0.10;99.90
22081;DHT22;11207;59.512;18.050;2022-12-18T04:02:07;-0.10;99.90
22081;DHT22;11207;59.512;18.050;2022-12-18T04:04:35;-0.20;99.90
22081;DHT22;11207;59.512;18.050;2022-12-18T04:07:03;-0.30;99.90
22081;DHT22;11207;59.512;18.050;2022-12-18T04:09:31;-0.30;99.90
22081;DHT22;11207;59.512;18.050;2022-12-18T04:11:57;-0.30;99.90
22081;DHT22;11207;59.512;18.050;2022-12-18T04:14:23;-0.30;99.90
22081;DHT22;11207;59.512;18.050;2022-12-18T04:16:48;-0.30;99.90
22081;DHT22;11207;59.512;18.050;2022-12-18T04:19:14;-0.30;99.90
22081;DHT22;11207;59.512;18.050;2022-12-18T04:21:40;-0.40;99.90
22081;DHT22;11207;59.512;18.050;2022-12-18T04:24:06;-0.40;99.90
22081;DHT22;11207;59.512;18.050;2022-12-18T04:26:31;-0.30;99.90
22081;DHT22;11207;59.512;18.050;2022-12-18T04:28:57;-0.40;99.90
22081;DHT22;11207;59.512;18.050;2022-12-18T04:31:22;-0.40;99.90
22081;DHT22;11207;59.512;18.050;2022-12-18T04:33:48;-0.40;99.90
22081;DHT22;11207;59.512;18.050;2022-12-18T04:36:14;-0.40;99.90
22081;DHT22;11207;59.512;18.050;2022-12-18T04:38:40;-0.40;99.90
22081;DHT22;11207;59.512;18.050;2022-12-18T04:41:05;-0.40;99.90
22081;DHT22;11207;59.512;18.050;2022-12-18T04:43:31;-0.40;99.90
22081;DHT22;11207;59.512;18.050;2022-12-18T04:46:05;-0.40;99.90
22081;DHT22;11207;59.512;18.050;2022-12-18T04:48:31;-0.40;99.90
22081;DHT22;11207;59.512;18.050;2022-12-18T04:50:57;-0.40;99.90
22081;DHT22;11207;59.512;18.050;2022-12-18T04:53:23;-0.40;99.90
22081;DHT22;11207;59.512;18.050;2022-12-18T04:55:49;-0.40;99.90
22081;DHT22;11207;59.512;18.050;2022-12-18T04:58:15;-0.40;99.90
22081;DHT22;11207;59.512;18.050;2022-12-18T05:00:40;-0.40;99.90
22081;DHT22;11207;59.512;18.050;2022-12-18T05:03:06;-0.40;99.90
22081;DHT22;11207;59.512;18.050;2022-12-18T05:05:31;-0.30;99.90
22081;DHT22;11207;59.512;18.050;2022-12-18T05:07:59;-0.40;99.90
22081;DHT22;11207;59.512;18.050;2022-12-18T05:10:25;-0.30;99.90
22081;DHT22;11207;59.512;18.050;2022-12-18T05:12:50;-0.30;99.90
22081;DHT22;11207;59.512;18.050;2022-12-18T05:15:32;-0.30;99.90
22081;DHT22;11207;59.512;18.050;2022-12-18T05:17:59;-0.30;99.90
22081;DHT22;11207;59.512;18.050;2022-12-18T05:20:25;-0.40;99.90
22081;DHT22;11207;59.512;18.050;2022-12-18T05:22:51;-0.40;99.90
22081;DHT22;11207;59.512;18.050;2022-12-18T05:25:18;-0.40;99.90
22081;DHT22;11207;59.512;18.050;2022-12-18T05:27:44;-0.40;99.90
22081;DHT22;11207;59.512;18.050;2022-12-18T05:30:11;-0.40;99.90
22081;DHT22;11207;59.512;18.050;2022-12-18T05:32:37;-0.40;99.90
22081;DHT22;11207;59.512;18.050;2022-12-18T05:35:03;-0.40;99.90
22081;DHT22;11207;59.512;18.050;2022-12-18T05:37:29;-0.50;99.90
22081;DHT22;11207;59.512;18.050;2022-12-18T05:39:55;-0.40;99.90
22081;DHT22;11207;59.512;18.050;2022-12-18T05:42:20;-0.40;99.90
22081;DHT22;11207;59.512;18.050;2022-12-18T05:44:46;-0.40;99.90
22081;DHT22;11207;59.512;18.050;2022-12-18T05:47:11;-0.40;99.90
22081;DHT22;11207;59.512;18.050;2022-12-18T05:49:37;-0.40;99.90
22081;DHT22;11207;59.512;18.050;2022-12-18T05:52:03;-0.40;99.90
22081;DHT22;11207;59.512;18.050;2022-12-18T05:54:28;-0.40;99.90
22081;DHT22;11207;59.512;18.050;2022-12-18T05:56:54;-0.40;99.90
22081;DHT22;11207;59.512;18.050;2022-12-18T05:59:20;-0.30;99.90
22081;DHT22;11207;59.512;18.050;2022-12-18T06:01:46;-0.30;99.90
22081;DHT22;11207;59.512;18.050;2022-12-18T06:04:11;-0.30;99.90
22081;DHT22;11207;59.512;18.050;2022-12-18T06:06:37;-0.30;99.90
22081;DHT22;11207;59.512;18.050;2022-12-18T06:09:03;-0.30;99.90
22081;DHT22;11207;59.512;18.050;2022-12-18T06:11:34;-0.30;99.90
22081;DHT22;11207;59.512;18.050;2022-12-18T06:14:01;-0.30;99.90
22081;DHT22;11207;59.512;18.050;2022-12-18T06:16:28;-0.30;99.90
22081;DHT22;11207;59.512;18.050;2022-12-18T06:18:59;-0.30;99.90
22081;DHT22;11207;59.512;18.050;2022-12-18T06:21:26;-0.30;99.90
22081;DHT22;11207;59.512;18.050;2022-12-18T06:23:52;-0.20;99.90
22081;DHT22;11207;59.512;18.050;2022-12-18T06:26:18;-0.20;99.90
22081;DHT22;11207;59.512;18.050;2022-12-18T06:28:43;-0.20;99.90
22081;DHT22;11207;59.512;18.050;2022-12-18T06:31:09;-0.20;99.90
22081;DHT22;11207;59.512;18.050;2022-12-18T06:33:35;-0.10;99.90
22081;DHT22;11207;59.512;18.050;2022-12-18T06:36:06;-0.10;99.90
22081;DHT22;11207;59.512;18.050;2022-12-18T06:38:34;-0.10;99.90
22081;DHT22;11207;59.512;18.050;2022-12-18T06:41:00;-0.10;99.90
22081;DHT22;11207;59.512;18.050;2022-12-18T06:43:25;-0.10;99.90
22081;DHT22;11207;59.512;18.050;2022-12-18T06:45:51;-0.10;99.90
22081;DHT22;11207;59.512;18.050;2022-12-18T06:48:21;-0.10;99.90
22081;DHT22;11207;59.512;18.050;2022-12-18T06:50:47;-0.10;99.90
22081;DHT22;11207;59.512;18.050;2022-12-18T06:53:12;-0.10;99.90
22081;DHT22;11207;59.512;18.050;2022-12-18T06:55:38;-0.10;99.90
22081;DHT22;11207;59.512;18.050;2022-12-18T06:58:06;-0.20;99.90
22081;DHT22;11207;59.512;18.050;2022-12-18T07:00:32;-0.10;99.90
22081;DHT22;11207;59.512;18.050;2022-12-18T07:02:57;-0.10;99.90
22081;DHT22;11207;59.512;18.050;2022-12-18T07:05:23;-0.10;99.90
22081;DHT22;11207;59.512;18.050;2022-12-18T07:07:49;-0.10;99.90
22081;DHT22;11207;59.512;18.050;2022-12-18T07:10:14;-0.20;99.90
22081;DHT22;11207;59.512;18.050;2022-12-18T07:12:40;-0.20;99.90
22081;DHT22;11207;59.512;18.050;2022-12-18T07:15:07;-0.10;99.90
22081;DHT22;11207;59.512;18.050;2022-12-18T07:17:32;-0.10;99.90
22081;DHT22;11207;59.512;18.050;2022-12-18T07:19:58;-0.10;99.90
22081;DHT22;11207;59.512;18.050;2022-12-18T07:22:25;-0.10;99.90
22081;DHT22;11207;59.512;18.050;2022-12-18T07:24:51;-0.10;99.90
22081;DHT22;11207;59.512;18.050;2022-12-18T07:27:16;0.00;99.90
22081;DHT22;11207;59.512;18.050;2022-12-18T07:29:42;-0.10;99.90
22081;DHT22;11207;59.512;18.050;2022-12-18T07:32:08;0.00;99.90
22081;DHT22;11207;59.512;18.050;2022-12-18T07:34:33;0.00;99.90
22081;DHT22;11207;59.512;18.050;2022-12-18T07:36:59;0.00;99.90
22081;DHT22;11207;59.512;18.050;2022-12-18T07:39:25;0.00;99.90
22081;DHT22;11207;59.512;18.050;2022-12-18T07:41:50;-0.10;99.90
22081;DHT22;11207;59.512;18.050;2022-12-18T07:44:35;-0.10;99.90
22081;DHT22;11207;59.512;18.050;2022-12-18T07:47:01;-0.10;99.90
22081;DHT22;11207;59.512;18.050;2022-12-18T07:49:27;-0.10;99.90
22081;DHT22;11207;59.512;18.050;2022-12-18T07:51:55;0.00;99.90
22081;DHT22;11207;59.512;18.050;2022-12-18T07:54:20;0.00;99.90
22081;DHT22;11207;59.512;18.050;2022-12-18T07:56:46;0.00;99.90
22081;DHT22;11207;59.512;18.050;2022-12-18T07:59:11;0.00;99.90
22081;DHT22;11207;59.512;18.050;2022-12-18T08:01:37;0.00;99.90
22081;DHT22;11207;59.512;18.050;2022-12-18T08:04:03;0.10;99.90
22081;DHT22;11207;59.512;18.050;2022-12-18T08:06:28;0.00;99.90
22081;DHT22;11207;59.512;18.050;2022-12-18T08:08:55;0.00;99.90
22081;DHT22;11207;59.512;18.050;2022-12-18T08:11:22;0.00;99.90
22081;DHT22;11207;59.512;18.050;2022-12-18T08:13:48;0.10;99.90
22081;DHT22;11207;59.512;18.050;2022-12-18T08:16:14;0.10;99.90
22081;DHT22;11207;59.512;18.050;2022-12-18T08:18:39;0.10;99.90
22081;DHT22;11207;59.512;18.050;2022-12-18T08:21:14;0.20;99.90
22081;DHT22;11207;59.512;18.050;2022-12-18T08:23:41;0.20;99.90
22081;DHT22;11207;59.512;18.050;2022-12-18T08:26:07;0.20;99.90
22081;DHT22;11207;59.512;18.050;2022-12-18T08:28:33;0.20;99.90
22081;DHT22;11207;59.512;18.050;2022-12-18T08:30:59;0.20;99.90
22081;DHT22;11207;59.512;18.050;2022-12-18T08:33:26;0.20;99.90
22081;DHT22;11207;59.512;18.050;2022-12-18T08:35:52;0.30;99.90
22081;DHT22;11207;59.512;18.050;2022-12-18T08:38:17;0.30;99.90
22081;DHT22;11207;59.512;18.050;2022-12-18T08:40:43;0.30;99.90
22081;DHT22;11207;59.512;18.050;2022-12-18T08:43:12;0.40;99.90
22081;DHT22;11207;59.512;18.050;2022-12-18T08:45:56;0.40;99.90
22081;DHT22;11207;59.512;18.050;2022-12-18T08:48:22;0.50;99.90
22081;DHT22;11207;59.512;18.050;2022-12-18T08:50:56;0.50;99.90
22081;DHT22;11207;59.512;18.050;2022-12-18T08:53:25;0.50;99.90
22081;DHT22;11207;59.512;18.050;2022-12-18T08:55:51;0.60;99.90
22081;DHT22;11207;59.512;18.050;2022-12-18T08:58:17;0.60;99.90
22081;DHT22;11207;59.512;18.050;2022-12-18T09:00:43;0.60;99.90
22081;DHT22;11207;59.512;18.050;2022-12-18T09:03:17;0.70;99.90
22081;DHT22;11207;59.512;18.050;2022-12-18T09:05:43;0.70;99.90
22081;DHT22;11207;59.512;18.050;2022-12-18T09:08:10;0.70;99.90
22081;DHT22;11207;59.512;18.050;2022-12-18T09:10:44;0.80;99.90
22081;DHT22;11207;59.512;18.050;2022-12-18T09:13:11;0.80;99.90
22081;DHT22;11207;59.512;18.050;2022-12-18T09:15:45;0.80;99.90
22081;DHT22;11207;59.512;18.050;2022-12-18T09:18:12;0.90;99.90
22081;DHT22;11207;59.512;18.050;2022-12-18T09:20:39;0.90;99.90
22081;DHT22;11207;59.512;18.050;2022-12-18T09:23:05;0.90;99.90
22081;DHT22;11207;59.512;18.050;2022-12-18T09:25:32;1.00;99.90
22081;DHT22;11207;59.512;18.050;2022-12-18T09:28:03;1.00;99.90
22081;DHT22;11207;59.512;18.050;2022-12-18T09:30:29;1.00;99.90
22081;DHT22;11207;59.512;18.050;2022-12-18T09:32:55;1.10;99.90
22081;DHT22;11207;59.512;18.050;2022-12-18T09:35:21;1.10;99.90
22081;DHT22;11207;59.512;18.050;2022-12-18T09:37:47;1.10;99.90
22081;DHT22;11207;59.512;18.050;2022-12-18T09:40:21;1.20;99.90
22081;DHT22;11207;59.512;18.050;2022-12-18T09:42:56;1.20;99.90
22081;DHT22;11207;59.512;18.050;2022-12-18T09:45:23;1.20;99.90
22081;DHT22;11207;59.512;18.050;2022-12-18T09:47:51;1.30;99.90
22081;DHT22;11207;59.512;18.050;2022-12-18T09:50:28;1.30;99.90
22081;DHT22;11207;59.512;18.050;2022-12-18T09:52:59;1.30;99.90
22081;DHT22;11207;59.512;18.050;2022-12-18T09:55:29;1.30;99.90
22081;DHT22;11207;59.512;18.050;2022-12-18T09:58:00;1.30;99.90
22081;DHT22;11207;59.512;18.050;2022-12-18T10:00:27;1.30;99.90
22081;DHT22;11207;59.512;18.050;2022-12-18T10:03:00;1.40;99.90
22081;DHT22;11207;59.512;18.050;2022-12-18T10:05:37;1.30;99.90
22081;DHT22;11207;59.512;18.050;2022-12-18T10:10:50;1.40;99.90
22081;DHT22;11207;59.512;18.050;2022-12-18T10:21:28;1.50;99.90
22081;DHT22;11207;59.512;18.050;2022-12-18T10:26:27;1.50;99.90
22081;DHT22;11207;59.512;18.050;2022-12-18T10:28:53;1.60;99.90
22081;DHT22;11207;59.512;18.050;2022-12-18T10:31:21;1.60;99.90
22081;DHT22;11207;59.512;18.050;2022-12-18T10:33:47;1.60;99.90
22081;DHT22;11207;59.512;18.050;2022-12-18T10:36:13;1.50;99.90
22081;DHT22;11207;59.512;18.050;2022-12-18T10:38:39;1.50;99.90
22081;DHT22;11207;59.512;18.050;2022-12-18T10:41:06;1.70;99.90
22081;DHT22;11207;59.512;18.050;2022-12-18T10:43:39;1.60;99.90
22081;DHT22;11207;59.512;18.050;2022-12-18T10:53:56;1.70;99.90
22081;DHT22;11207;59.512;18.050;2022-12-18T10:56:24;1.70;99.90
22081;DHT22;11207;59.512;18.050;2022-12-18T10:59:03;1.80;99.90
22081;DHT22;11207;59.512;18.050;2022-12-18T11:04:22;1.80;99.90
22081;DHT22;11207;59.512;18.050;2022-12-18T11:07:03;1.80;99.90
22081;DHT22;11207;59.512;18.050;2022-12-18T11:09:31;1.80;99.90
22081;DHT22;11207;59.512;18.050;2022-12-18T11:12:00;1.80;99.90
22081;DHT22;11207;59.512;18.050;2022-12-18T11:14:47;2.00;99.90
22081;DHT22;11207;59.512;18.050;2022-12-18T11:17:32;1.70;99.90
22081;DHT22;11207;59.512;18.050;2022-12-18T11:20:02;1.80;99.90
22081;DHT22;11207;59.512;18.050;2022-12-18T11:22:33;1.80;99.90
22081;DHT22;11207;59.512;18.050;2022-12-18T11:25:20;1.80;99.90
22081;DHT22;11207;59.512;18.050;2022-12-18T11:28:00;1.80;99.90
22081;DHT22;11207;59.512;18.050;2022-12-18T11:34:37;1.80;99.90
22081;DHT22;11207;59.512;18.050;2022-12-18T11:36:47;1.80;99.90
22081;DHT22;11207;59.512;18.050;2022-12-18T11:39:42;1.80;99.90
22081;DHT22;11207;59.512;18.050;2022-12-18T11:42:38;1.70;99.90
22081;DHT22;11207;59.512;18.050;2022-12-18T11:50:21;1.80;99.90
22081;DHT22;11207;59.512;18.050;2022-12-18T11:52:48;1.80;99.90
22081;DHT22;11207;59.512;18.050;2022-12-18T11:55:33;1.90;99.90
22081;DHT22;11207;59.512;18.050;2022-12-18T12:00:49;1.90;99.90
22081;DHT22;11207;59.512;18.050;2022-12-18T12:15:30;1.90;99.90
22081;DHT22;11207;59.512;18.050;2022-12-18T12:21:03;1.90;99.90
22081;DHT22;11207;59.512;18.050;2022-12-18T12:34:22;1.90;99.90
22081;DHT22;11207;59.512;18.050;2022-12-18T12:39:24;1.90;99.90
22081;DHT22;11207;59.512;18.050;2022-12-18T12:41:55;1.90;99.90
22081;DHT22;11207;59.512;18.050;2022-12-18T12:44:44;2.00;99.90
22081;DHT22;11207;59.512;18.050;2022-12-18T12:47:19;2.00;99.90
22081;DHT22;11207;59.512;18.050;2022-12-18T12:49:46;2.00;99.90
22081;DHT22;11207;59.512;18.050;2022-12-18T12:52:35;2.00;99.90
22081;DHT22;11207;59.512;18.050;2022-12-18T12:55:04;2.00;99.90
22081;DHT22;11207;59.512;18.050;2022-12-18T12:57:39;2.00;99.90
22081;DHT22;11207;59.512;18.050;2022-12-18T13:05:56;2.10;99.90
22081;DHT22;11207;59.512;18.050;2022-12-18T13:08:27;2.10;99.90
22081;DHT22;11207;59.512;18.050;2022-12-18T13:10:57;2.10;99.90
22081;DHT22;11207;59.512;18.050;2022-12-18T13:13:55;2.00;99.90
22081;DHT22;11207;59.512;18.050;2022-12-18T13:16:23;2.10;99.90
22081;DHT22;11207;59.512;18.050;2022-12-18T13:18:53;2.10;99.90
22081;DHT22;11207;59.512;18.050;2022-12-18T13:21:28;2.10;99.90
22081;DHT22;11207;59.512;18.050;2022-12-18T13:23:55;2.10;99.90
22081;DHT22;11207;59.512;18.050;2022-12-18T13:26:28;2.10;99.90
22081;DHT22;11207;59.512;18.050;2022-12-18T13:28:55;2.20;99.90
22081;DHT22;11207;59.512;18.050;2022-12-18T13:34:26;2.30;99.90
22081;DHT22;11207;59.512;18.050;2022-12-18T13:36:53;2.30;99.90
22081;DHT22;11207;59.512;18.050;2022-12-18T13:41:54;2.20;99.90
22081;DHT22;11207;59.512;18.050;2022-12-18T13:44:56;2.30;99.90
22081;DHT22;11207;59.512;18.050;2022-12-18T13:47:36;2.30;99.90
22081;DHT22;11207;59.512;18.050;2022-12-18T13:50:26;2.30;99.90
22081;DHT22;11207;59.512;18.050;2022-12-18T13:52:52;2.30;99.90
22081;DHT22;11207;59.512;18.050;2022-12-18T13:55:20;2.40;99.90
22081;DHT22;11207;59.512;18.050;2022-12-18T13:57:47;2.40;99.90
22081;DHT22;11207;59.512;18.050;2022-12-18T14:02:48;2.40;99.90
22081;DHT22;11207;59.512;18.050;2022-12-18T14:05:22;2.50;99.90
22081;DHT22;11207;59.512;18.050;2022-12-18T14:07:49;2.40;99.90
22081;DHT22;11207;59.512;18.050;2022-12-18T14:10:15;2.40;99.90
22081;DHT22;11207;59.512;18.050;2022-12-18T14:12:45;2.40;99.90
22081;DHT22;11207;59.512;18.050;2022-12-18T14:18:09;2.40;99.90
22081;DHT22;11207;59.512;18.050;2022-12-18T14:20:43;2.50;99.90
22081;DHT22;11207;59.512;18.050;2022-12-18T14:26:01;2.50;99.90
22081;DHT22;11207;59.512;18.050;2022-12-18T14:28:27;2.40;99.90
22081;DHT22;11207;59.512;18.050;2022-12-18T14:30:54;2.40;99.90
22081;DHT22;11207;59.512;18.050;2022-12-18T14:40:54;2.40;99.90
22081;DHT22;11207;59.512;18.050;2022-12-18T14:43:20;2.40;99.90
22081;DHT22;11207;59.512;18.050;2022-12-18T14:45:46;2.40;99.90
22081;DHT22;11207;59.512;18.050;2022-12-18T14:50:59;2.40;99.90
22081;DHT22;11207;59.512;18.050;2022-12-18T14:53:34;2.40;99.90
22081;DHT22;11207;59.512;18.050;2022-12-18T14:56:01;2.40;99.90
22081;DHT22;11207;59.512;18.050;2022-12-18T14:58:27;2.40;99.90
22081;DHT22;11207;59.512;18.050;2022-12-18T15:00:52;2.40;99.90
22081;DHT22;11207;59.512;18.050;2022-12-18T15:03:20;2.40;99.90
22081;DHT22;11207;59.512;18.050;2022-12-18T15:05:47;2.40;99.90
22081;DHT22;11207;59.512;18.050;2022-12-18T15:08:35;2.30;99.90
22081;DHT22;11207;59.512;18.050;2022-12-18T15:11:02;2.30;99.90
22081;DHT22;11207;59.512;18.050;2022-12-18T15:13:27;2.30;99.90
22081;DHT22;11207;59.512;18.050;2022-12-18T15:15:55;2.40;99.90
22081;DHT22;11207;59.512;18.050;2022-12-18T15:18:27;2.30;99.90
22081;DHT22;11207;59.512;18.050;2022-12-18T15:20:57;2.30;99.90
22081;DHT22;11207;59.512;18.050;2022-12-18T15:23:46;2.40;99.90
22081;DHT22;11207;59.512;18.050;2022-12-18T15:26:14;2.40;99.90
22081;DHT22;11207;59.512;18.050;2022-12-18T15:31:21;2.40;99.90
22081;DHT22;11207;59.512;18.050;2022-12-18T15:36:18;2.40;99.90
22081;DHT22;11207;59.512;18.050;2022-12-18T15:38:48;2.40;99.90
22081;DHT22;11207;59.512;18.050;2022-12-18T15:41:15;2.40;99.90
22081;DHT22;11207;59.512;18.050;2022-12-18T15:43:41;2.40;99.90
22081;DHT22;11207;59.512;18.050;2022-12-18T15:46:12;2.40;99.90
22081;DHT22;11207;59.512;18.050;2022-12-18T15:48:43;2.50;99.90
22081;DHT22;11207;59.512;18.050;2022-12-18T15:53:39;2.50;99.90
22081;DHT22;11207;59.512;18.050;2022-12-18T15:56:10;2.50;99.90
22081;DHT22;11207;59.512;18.050;2022-12-18T15:58:55;2.50;99.90
22081;DHT22;11207;59.512;18.050;2022-12-18T16:01:22;2.50;99.90
22081;DHT22;11207;59.512;18.050;2022-12-18T16:03:49;2.60;99.90
22081;DHT22;11207;59.512;18.050;2022-12-18T16:06:14;2.50;99.90
22081;DHT22;11207;59.512;18.050;2022-12-18T16:08:40;2.50;99.90
22081;DHT22;11207;59.512;18.050;2022-12-18T16:11:08;2.60;99.90
22081;DHT22;11207;59.512;18.050;2022-12-18T16:13:41;2.60;99.90
22081;DHT22;11207;59.512;18.050;2022-12-18T16:16:08;2.60;99.90
22081;DHT22;11207;59.512;18.050;2022-12-18T16:18:34;2.60;99.90
22081;DHT22;11207;59.512;18.050;2022-12-18T16:20:59;2.60;99.90
22081;DHT22;11207;59.512;18.050;2022-12-18T16:23:25;2.60;99.90
22081;DHT22;11207;59.512;18.050;2022-12-18T16:25:52;2.70;99.90
22081;DHT22;11207;59.512;18.050;2022-12-18T16:28:18;2.50;99.90
22081;DHT22;11207;59.512;18.050;2022-12-18T16:30:43;2.60;99.90
22081;DHT22;11207;59.512;18.050;2022-12-18T16:33:10;2.60;99.90
22081;DHT22;11207;59.512;18.050;2022-12-18T16:35:36;2.60;99.90
22081;DHT22;11207;59.512;18.050;2022-12-18T16:38:02;2.60;99.90
22081;DHT22;11207;59.512;18.050;2022-12-18T16:40:31;2.60;99.90
22081;DHT22;11207;59.512;18.050;2022-12-18T16:42:57;2.60;99.90
22081;DHT22;11207;59.512;18.050;2022-12-18T16:45:26;2.60;99.90
22081;DHT22;11207;59.512;18.050;2022-12-18T16:47:51;2.50;99.90
22081;DHT22;11207;59.512;18.050;2022-12-18T16:50:17;2.50;99.90
22081;DHT22;11207;59.512;18.050;2022-12-18T16:52:43;2.50;99.90
22081;DHT22;11207;59.512;18.050;2022-12-18T16:55:09;2.50;99.90
22081;DHT22;11207;59.512;18.050;2022-12-18T16:57:35;2.50;99.90
22081;DHT22;11207;59.512;18.050;2022-12-18T17:00:01;2.50;99.90
22081;DHT22;11207;59.512;18.050;2022-12-18T17:02:27;2.50;99.90
22081;DHT22;11207;59.512;18.050;2022-12-18T17:04:57;2.40;99.90
22081;DHT22;11207;59.512;18.050;2022-12-18T17:07:24;2.50;99.90
22081;DHT22;11207;59.512;18.050;2022-12-18T17:09:50;2.40;99.90
22081;DHT22;11207;59.512;18.050;2022-12-18T17:12:16;2.50;99.90
22081;DHT22;11207;59.512;18.050;2022-12-18T17:14:42;2.50;99.90
22081;DHT22;11207;59.512;18.050;2022-12-18T17:17:08;2.50;99.90
22081;DHT22;11207;59.512;18.050;2022-12-18T17:19:34;2.60;99.90
22081;DHT22;11207;59.512;18.050;2022-12-18T17:22:02;2.60;99.90
22081;DHT22;11207;59.512;18.050;2022-12-18T17:24:29;2.60;99.90
22081;DHT22;11207;59.512;18.050;2022-12-18T17:26:55;2.50;99.90
22081;DHT22;11207;59.512;18.050;2022-12-18T17:29:20;2.40;99.90
22081;DHT22;11207;59.512;18.050;2022-12-18T17:31:46;2.40;99.90
22081;DHT22;11207;59.512;18.050;2022-12-18T17:34:12;2.40;99.90
22081;DHT22;11207;59.512;18.050;2022-12-18T17:36:38;2.30;99.90